Terminal Aerodrome Forecast
Issued by NWS Shreveport, LA

Home | Current Version | Previous Version | Text Only | Print | Product List | Glossary On
Versions: 1 2 3 4 5 6 7 8 9 10 11 12 13 14 15 16 17
434
FTUS44 KSHV 212322
TAFTXK
TAF
KTXK 212322Z 2200/2224 VRB05KT P6SM SCT050 SCT250
     FM220300 VRB03KT P6SM FEW250
     FM221600 VRB05KT P6SM SCT035 SCT250
     FM221900 19006KT P6SM SCT050 SCT250=

USA.gov is the U.S. government's official web portal to all federal, state and local government web resources and services.